São José dos Campos/Professor Urbano Ernesto Stumpf Airport

Airport
ICAO code: 
SBSJ
IATA Code: 
SJK
Summary
ICAO Region: 
CARSAM
Territory: 
Location: 
São José dos Campos, São Paulo
Serving: 
São José dos Campos
Elevation: 
2120 ft
Coordinates: 
Aerial View: 
23° 13' 45" S, 45° 51' 41" W
Metar
Observation
SBSJ 261100Z VRB02KT 4000 BR BKN005 13/11 Q1026
Station
Sao Jose Dos Campo
Date/Time
2022-05-26 11:00:00
Wind speed
02 kts
Lowest cloud amount
broken clouds
Temperature
13°C
Dew point
11°C
Humidity
87%
QNH
1026 hPa
Weather condition
n/a

São José dos Campos-Professor Urbano Ernesto Stumpf Airport, is a public-use airport located 12 km from downtown São José dos Campos, a city in the state of São Paulo in Brazil

Climatology

Humid “subtropical” climate (Köppen climate classification Cfa) - characterized by hot, humid summers and cool winters. Significant amounts of precipitation occur in all seasons in most areas. Winter rainfall (and sometimes snowfall) is associated with large storms that the westerlies steer from west to east. Most summer rainfall occurs during thunderstorms.

Runways

Designator Length Width Surface Rops
15/33 2676 45 ASP Yes/Yes
Airport map: 
Aerial View: 

SKYbrary Partners:

Safety knowledge contributed by: